Mc Veytown, Pennsylvania
Current Conditions -  °F | °C
As of 9:55 PM on Monday 22 Dec 2014 (Local Time) from KUNV Reporting Station
Unknown Precip Unknown Precip  
Wind Chill: 32°   Ceiling: 1000
Heat Index: 32°   Visibility: 1.7mi
Dew Point: 31°   Wind: 3mph
Humidity: 97%   Direction: 310°NW
Pressure: 30.11"   Gusts: NA
Location:  40.5138°N, 77.7384°W
Report Text: KUNV 230255Z AUTO 31003KT 1 3/4SM UP OVC010 00/M01 A3011 RMK AO2 T10021006
Loading
Personal Weather Stations






























Interactive Weather Map New forecast layout! Learn more

10-Day Weather Forecast

Advertisements
Track Severe Weather on mobile